Hovedside
METAR-TAF:

METAR-TAF

Lufthavner :

Kerteh, Malaysia

breddegrad: 04-32-15N, lengdegrad: 103-25-36E, høyde over havet: 5 m

Gjeldene værobservasjon

Denne rapporten ble laget for 1 time og 3 minutter siden, klokken 02:00 UTC
Flau vind
Temperatur 26°C
Luftfuktighet 84%
Trykk 1008 hPa
Sikt 10 km eller mer
Spredte skyer i en høyde av 2000 ft

METAR: WMKE 220200Z 00000KT 9999 SCT020 26/23 Q1008

Tid: 11:03 (03:03 UTC)

Varsel

Denne rapporten ble laget for 4 timer og 3 minutter siden, klokken 23:00 UTC
Varsel gyldig fra 22. klokken 00 UTC til 23. klokken 00 UTC
Vind 10 kt fra Nordvest
Sikt 10 km eller mer
Få skyer i en høyde av 2000 ft

TAF: WMKE 212300Z 2200/2300 32010KT 9999 FEW020

Værobservasjoner og værvarsel for over 4000 flyplasser (METAR- og TAF-rapporter).

Tilgjengelige stasjoner er representert av de røde og gule prikkene på kartet.

Hold musepekeren over prikken for å se navnet på stasjonen.

Klikk så for å se værobservasjoner og -varsler.

For å forandre kartet kan du klikke på den grønne knappen med svart kryss for å zoome inn, på den grønne knappen med strek for å zoome ut, eller på de grønne pilene for å se tilstøtende kart.


METAR-TAF: